createdAt,value
2019-04-14T00:00:03.428Z,33.36
2019-04-14T00:02:32.108Z,33.41
2019-04-14T00:04:59.488Z,33.44
2019-04-14T00:07:27.609Z,33.29
2019-04-14T00:09:54.661Z,33.20
2019-04-14T00:12:22.952Z,33.18
2019-04-14T00:14:51.176Z,33.17
2019-04-14T00:17:19.444Z,33.16
2019-04-14T00:19:47.708Z,33.17
2019-04-14T00:22:14.781Z,33.13
2019-04-14T00:24:42.453Z,33.21
2019-04-14T00:27:10.569Z,33.35
2019-04-14T00:29:37.659Z,33.40
2019-04-14T00:32:05.154Z,33.48
2019-04-14T00:34:33.131Z,33.42
2019-04-14T00:37:01.273Z,33.37
2019-04-14T00:39:29.425Z,33.37
2019-04-14T00:41:59.043Z,33.43
2019-04-14T00:44:25.436Z,33.46
2019-04-14T00:46:52.414Z,33.43
2019-04-14T00:49:20.034Z,33.32
2019-04-14T00:51:48.509Z,33.35
2019-04-14T00:54:15.925Z,33.30
2019-04-14T00:56:43.353Z,33.37
2019-04-14T00:59:11.350Z,33.33
2019-04-14T01:01:39.410Z,33.29
2019-04-14T01:04:07.695Z,33.29
2019-04-14T01:06:34.678Z,33.31
2019-04-14T01:09:02.104Z,33.25
2019-04-14T01:11:31.364Z,33.18
2019-04-14T01:13:59.395Z,33.22
2019-04-14T01:16:27.039Z,33.31
2019-04-14T01:18:55.871Z,33.52
2019-04-14T01:21:24.138Z,33.55
2019-04-14T01:23:52.267Z,33.55
2019-04-14T01:26:20.451Z,33.59
2019-04-14T01:28:48.301Z,33.69
2019-04-14T01:31:16.358Z,33.70
2019-04-14T01:33:44.444Z,33.73
2019-04-14T01:36:12.739Z,33.86
2019-04-14T01:38:40.608Z,33.92
2019-04-14T01:41:08.554Z,33.90
2019-04-14T01:43:36.407Z,34.02
2019-04-14T01:46:11.663Z,34.09
2019-04-14T01:48:32.468Z,34.00
2019-04-14T01:51:00.572Z,34.10
2019-04-14T01:53:27.612Z,34.16
2019-04-14T01:55:54.930Z,34.15
2019-04-14T01:58:22.864Z,34.13
2019-04-14T02:00:51.261Z,34.11
2019-04-14T02:03:19.501Z,34.07
2019-04-14T02:05:47.472Z,34.12
2019-04-14T02:08:15.499Z,34.14
2019-04-14T02:10:43.470Z,34.27
2019-04-14T02:13:11.486Z,34.44
2019-04-14T02:15:39.596Z,34.60
2019-04-14T02:18:07.744Z,34.69
2019-04-14T02:20:35.952Z,34.87
2019-04-14T02:23:03.996Z,34.97
2019-04-14T02:25:32.089Z,35.09
2019-04-14T02:28:00.138Z,35.20
2019-04-14T02:30:34.005Z,35.20
2019-04-14T02:33:23.677Z,35.97
2019-04-14T02:35:59.692Z,36.58
2019-04-14T02:38:33.461Z,37.23
2019-04-14T02:40:53.882Z,38.38
2019-04-14T02:43:23.680Z,38.65
2019-04-14T02:45:59.982Z,38.99
2019-04-14T02:48:29.236Z,39.14
2019-04-14T02:50:42.205Z,39.29
2019-04-14T02:53:15.184Z,39.55
2019-04-14T02:55:46.789Z,39.58
2019-04-14T02:58:16.315Z,39.66
2019-04-14T03:03:08.817Z,39.97
2019-04-14T03:05:34.123Z,40.04
2019-04-14T03:08:10.685Z,39.96
2019-04-14T03:10:33.262Z,39.91
2019-04-14T03:13:05.545Z,39.80
2019-04-14T03:15:37.807Z,39.89
2019-04-14T03:18:18.596Z,39.86
2019-04-14T03:20:24.511Z,39.79
2019-04-14T03:22:55.756Z,39.74
2019-04-14T03:25:17.094Z,39.81
2019-04-14T03:27:55.144Z,39.83
2019-04-14T03:30:48.840Z,40.08
2019-04-14T03:35:51.102Z,40.80
2019-04-14T03:37:50.930Z,40.67
2019-04-14T03:40:18.327Z,40.67
2019-04-14T03:42:45.975Z,40.64
2019-04-14T03:45:15.511Z,40.56
2019-04-14T03:47:43.360Z,40.79
2019-04-14T03:50:06.058Z,41.16
2019-04-14T03:52:52.728Z,41.34
2019-04-14T03:54:58.225Z,41.23
2019-04-14T03:57:10.424Z,41.04
2019-04-14T03:59:39.129Z,40.92
2019-04-14T04:02:07.433Z,40.94
2019-04-14T04:04:34.480Z,41.16
2019-04-14T04:07:01.884Z,41.42
2019-04-14T04:09:29.970Z,41.57
2019-04-14T04:11:57.044Z,41.59
2019-04-14T04:14:24.614Z,41.47
2019-04-14T04:16:52.857Z,41.43
2019-04-14T04:19:21.171Z,41.26
2019-04-14T04:21:48.794Z,41.25
2019-04-14T04:24:17.011Z,41.29
2019-04-14T04:26:45.064Z,41.45
2019-04-14T04:29:12.126Z,41.65
2019-04-14T04:31:39.599Z,41.71
2019-04-14T04:34:07.618Z,41.58
2019-04-14T04:36:35.631Z,41.50
2019-04-14T04:39:03.867Z,41.46
2019-04-14T04:41:31.796Z,41.48
2019-04-14T04:43:59.157Z,41.62
2019-04-14T04:46:26.582Z,41.59
2019-04-14T04:49:03.175Z,41.50
2019-04-14T04:51:22.522Z,41.56
2019-04-14T04:53:50.509Z,41.67
2019-04-14T04:56:18.591Z,41.82
2019-04-14T04:58:45.681Z,41.88
2019-04-14T05:01:12.572Z,41.87
2019-04-14T05:03:40.718Z,41.76
2019-04-14T05:06:08.975Z,41.68
2019-04-14T05:08:36.968Z,41.79
2019-04-14T05:11:04.040Z,41.82
2019-04-14T05:13:31.351Z,41.80
2019-04-14T05:15:58.360Z,41.68
2019-04-14T05:18:26.667Z,41.65
2019-04-14T05:20:53.806Z,41.67
2019-04-14T05:23:21.344Z,41.64
2019-04-14T05:25:49.424Z,41.72
2019-04-14T05:28:17.707Z,41.71
2019-04-14T05:30:45.824Z,41.73
2019-04-14T05:33:14.090Z,41.65
2019-04-14T05:35:42.343Z,41.62
2019-04-14T05:38:10.519Z,41.61
2019-04-14T05:40:38.535Z,41.71
2019-04-14T05:43:06.719Z,41.67
2019-04-14T05:45:35.046Z,41.67
2019-04-14T05:48:03.242Z,41.68
2019-04-14T05:50:31.306Z,41.72
2019-04-14T05:52:58.248Z,41.74
2019-04-14T05:55:26.296Z,41.68
2019-04-14T05:57:54.517Z,41.78
2019-04-14T06:00:21.607Z,41.77
2019-04-14T06:02:48.946Z,41.80
2019-04-14T06:05:16.614Z,41.85
2019-04-14T06:07:43.941Z,41.79
2019-04-14T06:10:11.891Z,41.82
2019-04-14T06:12:38.787Z,41.96
2019-04-14T06:15:05.731Z,42.03
2019-04-14T06:17:32.600Z,42.07
2019-04-14T06:19:59.469Z,41.96
2019-04-14T06:22:26.382Z,41.87
2019-04-14T06:24:53.708Z,41.87
2019-04-14T06:27:20.873Z,41.76
2019-04-14T06:29:48.307Z,41.82
2019-04-14T06:32:15.453Z,41.73
2019-04-14T06:34:42.348Z,41.79
2019-04-14T06:37:09.236Z,41.70
2019-04-14T06:39:36.505Z,41.62
2019-04-14T06:42:03.769Z,41.52
2019-04-14T06:44:31.136Z,41.48
2019-04-14T06:46:58.382Z,41.49
2019-04-14T06:49:25.616Z,41.65
2019-04-14T06:51:52.934Z,41.67
2019-04-14T06:54:19.873Z,41.58
2019-04-14T06:56:47.058Z,41.52
2019-04-14T06:59:13.937Z,41.58
2019-04-14T07:01:40.941Z,41.71
2019-04-14T07:04:08.222Z,41.76
2019-04-14T07:06:35.484Z,41.88
2019-04-14T07:09:02.721Z,41.93
2019-04-14T07:11:31.508Z,42.05
2019-04-14T07:13:58.508Z,42.12
2019-04-14T07:16:25.425Z,42.20
2019-04-14T07:18:52.396Z,42.31
2019-04-14T07:21:19.253Z,42.36
2019-04-14T07:23:47.366Z,42.39
2019-04-14T07:26:14.413Z,42.51
2019-04-14T07:28:41.662Z,42.52
2019-04-14T07:31:08.913Z,42.40
2019-04-14T07:33:35.897Z,42.28
2019-04-14T07:36:03.129Z,42.25
2019-04-14T07:38:30.096Z,42.31
2019-04-14T07:40:57.312Z,42.27
2019-04-14T07:43:24.458Z,42.20
2019-04-14T07:45:51.330Z,42.26
2019-04-14T07:48:18.235Z,42.10
2019-04-14T07:50:45.516Z,41.97
2019-04-14T07:53:12.456Z,41.97
2019-04-14T07:55:39.378Z,42.06
2019-04-14T07:58:06.650Z,42.10
2019-04-14T08:00:33.529Z,42.08
2019-04-14T08:03:00.416Z,42.10
2019-04-14T08:05:27.321Z,42.14
2019-04-14T08:07:54.525Z,42.13
2019-04-14T08:10:21.409Z,42.14
2019-04-14T08:12:48.336Z,42.11
2019-04-14T08:15:15.274Z,42.15
2019-04-14T08:17:43.734Z,42.09
2019-04-14T08:20:11.146Z,42.08
2019-04-14T08:22:38.346Z,42.08
2019-04-14T08:25:05.630Z,42.01
2019-04-14T08:27:32.584Z,42.47
2019-04-14T08:29:59.925Z,42.42
2019-04-14T08:32:26.798Z,42.12
2019-04-14T08:34:53.748Z,41.89
2019-04-14T08:37:21.986Z,42.07
2019-04-14T08:39:48.858Z,41.99
2019-04-14T08:42:16.131Z,42.11
2019-04-14T08:44:43.368Z,42.21
2019-04-14T08:47:10.701Z,42.09
2019-04-14T08:49:37.664Z,42.18
2019-04-14T08:52:04.565Z,42.20
2019-04-14T08:54:31.835Z,42.26
2019-04-14T08:56:59.181Z,42.76
2019-04-14T08:59:26.332Z,42.74
2019-04-14T09:01:53.572Z,42.61
2019-04-14T09:04:21.517Z,42.47
2019-04-14T09:06:48.559Z,42.42
2019-04-14T09:09:15.592Z,42.38
2019-04-14T09:11:42.542Z,42.39
2019-04-14T09:14:09.482Z,42.37
2019-04-14T09:16:36.389Z,42.31
2019-04-14T09:19:07.947Z,42.22
2019-04-14T09:21:32.222Z,42.17
2019-04-14T09:23:59.375Z,42.17
2019-04-14T09:26:26.713Z,42.27
2019-04-14T09:28:53.718Z,42.30
2019-04-14T09:31:20.931Z,42.28
2019-04-14T09:33:47.820Z,42.24
2019-04-14T09:36:15.166Z,42.36
2019-04-14T09:38:42.044Z,42.42
2019-04-14T09:41:08.929Z,42.19
2019-04-14T09:43:36.261Z,42.14
2019-04-14T09:46:03.176Z,42.09
2019-04-14T09:48:30.497Z,42.07
2019-04-14T09:51:04.620Z,42.14
2019-04-14T09:53:26.301Z,42.11
2019-04-14T09:55:53.317Z,42.04
2019-04-14T09:58:20.319Z,41.97
2019-04-14T10:00:48.204Z,41.81
2019-04-14T10:03:15.166Z,41.81
2019-04-14T10:05:42.465Z,41.87
2019-04-14T10:08:09.356Z,42.06
2019-04-14T10:10:36.302Z,42.13
2019-04-14T10:13:03.369Z,42.00
2019-04-14T10:15:30.251Z,41.81
2019-04-14T10:17:57.208Z,41.77
2019-04-14T10:20:24.358Z,41.90
2019-04-14T10:22:51.617Z,42.08
2019-04-14T10:25:18.864Z,42.24
2019-04-14T10:27:45.755Z,42.19
2019-04-14T10:30:12.778Z,42.15
2019-04-14T10:32:39.797Z,42.09
2019-04-14T10:35:06.742Z,42.06
2019-04-14T10:37:33.710Z,42.04
2019-04-14T10:40:00.612Z,42.17
2019-04-14T10:42:27.630Z,42.24
2019-04-14T10:44:54.498Z,42.31
2019-04-14T10:47:21.457Z,42.32
2019-04-14T10:49:48.477Z,42.31
2019-04-14T10:52:15.422Z,42.28
2019-04-14T10:54:42.715Z,42.28
2019-04-14T10:57:09.682Z,42.36
2019-04-14T10:59:36.608Z,42.33
2019-04-14T11:02:03.842Z,42.27
2019-04-14T11:04:30.735Z,42.34
2019-04-14T11:06:58.055Z,42.29
2019-04-14T11:09:25.018Z,42.16
2019-04-14T11:11:51.933Z,42.22
2019-04-14T11:14:19.184Z,42.34
2019-04-14T11:16:46.436Z,42.35
2019-04-14T11:19:13.607Z,42.43
2019-04-14T11:21:42.669Z,42.52
2019-04-14T11:24:09.441Z,42.44
2019-04-14T11:26:36.389Z,42.52
2019-04-14T11:29:03.357Z,42.52
2019-04-14T11:31:30.301Z,42.51
2019-04-14T11:33:57.264Z,42.59
2019-04-14T11:36:24.227Z,42.61
2019-04-14T11:38:51.169Z,42.66
2019-04-14T11:41:18.397Z,42.67
2019-04-14T11:43:45.633Z,42.56
2019-04-14T11:46:12.569Z,42.56
2019-04-14T11:48:39.817Z,42.86
2019-04-14T11:51:06.973Z,42.87
2019-04-14T11:53:34.134Z,42.85
2019-04-14T11:56:01.348Z,42.86
2019-04-14T11:58:29.354Z,42.93
2019-04-14T12:00:56.411Z,42.93
2019-04-14T12:03:25.160Z,42.95
2019-04-14T12:05:52.097Z,42.90
2019-04-14T12:08:18.994Z,42.97
2019-04-14T12:10:45.878Z,42.92
2019-04-14T12:13:14.888Z,42.96
2019-04-14T12:15:41.825Z,43.35
2019-04-14T12:18:08.707Z,43.61
2019-04-14T12:20:35.573Z,43.38
2019-04-14T12:23:02.782Z,43.17
2019-04-14T12:25:29.920Z,42.99
2019-04-14T12:27:57.931Z,42.96
2019-04-14T12:30:24.955Z,43.29
2019-04-14T12:32:52.096Z,43.37
2019-04-14T12:35:19.000Z,43.31
2019-04-14T12:37:46.197Z,43.17
2019-04-14T12:40:16.357Z,43.09
2019-04-14T12:42:45.420Z,43.19
2019-04-14T12:45:12.336Z,43.37
2019-04-14T12:47:40.283Z,43.45
2019-04-14T12:50:07.901Z,43.45
2019-04-14T12:52:35.133Z,43.40
2019-04-14T12:55:02.001Z,43.36
2019-04-14T12:57:30.383Z,43.30
2019-04-14T12:59:57.397Z,43.16
2019-04-14T13:02:24.658Z,43.04
2019-04-14T13:04:51.807Z,42.95
2019-04-14T13:07:18.695Z,42.82
2019-04-14T13:09:45.657Z,42.84
2019-04-14T13:12:12.622Z,42.74
2019-04-14T13:14:39.916Z,42.61
2019-04-14T13:17:06.855Z,42.49
2019-04-14T13:19:33.763Z,42.41
2019-04-14T13:22:00.721Z,42.38
2019-04-14T13:24:27.672Z,42.33
2019-04-14T13:26:54.661Z,42.39
2019-04-14T13:29:21.986Z,42.44
2019-04-14T13:31:49.246Z,42.52
2019-04-14T13:34:16.117Z,42.57
2019-04-14T13:36:43.349Z,42.60
2019-04-14T13:39:12.590Z,42.73
2019-04-14T13:41:39.386Z,42.76
2019-04-14T13:44:06.357Z,42.75
2019-04-14T13:46:33.250Z,42.76
2019-04-14T13:49:00.197Z,42.74
2019-04-14T13:51:27.152Z,42.74
2019-04-14T13:53:54.321Z,42.69
2019-04-14T13:56:22.269Z,42.75
2019-04-14T13:58:49.426Z,42.82
2019-04-14T14:01:16.324Z,42.93
2019-04-14T14:03:43.538Z,42.99
2019-04-14T14:06:10.906Z,43.05
2019-04-14T14:08:38.142Z,43.23
2019-04-14T14:11:05.389Z,43.15
2019-04-14T14:13:32.540Z,42.99
2019-04-14T14:15:59.439Z,42.78
2019-04-14T14:18:26.394Z,42.58
2019-04-14T14:20:53.744Z,42.46
2019-04-14T14:23:20.638Z,42.37
2019-04-14T14:25:47.535Z,42.20
2019-04-14T14:28:14.844Z,42.09
2019-04-14T14:30:42.109Z,42.10
2019-04-14T14:33:09.012Z,42.22
2019-04-14T14:35:36.278Z,42.30
2019-04-14T14:38:03.181Z,42.32
2019-04-14T14:40:30.068Z,42.33
2019-04-14T14:42:57.233Z,42.26
2019-04-14T14:45:24.165Z,42.21
2019-04-14T14:47:51.034Z,42.10
2019-04-14T14:50:18.256Z,42.04
2019-04-14T14:52:45.536Z,41.99
2019-04-14T14:55:12.772Z,41.92
2019-04-14T14:57:39.661Z,41.98
2019-04-14T15:00:06.528Z,41.86
2019-04-14T15:02:33.721Z,41.86
2019-04-14T15:05:00.616Z,41.73
2019-04-14T15:07:27.604Z,41.95
2019-04-14T15:09:54.895Z,42.05
2019-04-14T15:12:22.211Z,41.93
2019-04-14T15:14:49.084Z,41.85
2019-04-14T15:17:16.324Z,41.70
2019-04-14T15:19:43.566Z,41.74
2019-04-14T15:22:10.825Z,41.72
2019-04-14T15:24:38.057Z,41.70
2019-04-14T15:27:05.258Z,41.72
2019-04-14T15:29:33.444Z,41.70
2019-04-14T15:32:00.648Z,41.76
2019-04-14T15:34:27.514Z,41.73
2019-04-14T15:36:54.389Z,41.64
2019-04-14T15:39:21.299Z,41.66
2019-04-14T15:41:48.638Z,41.66
2019-04-14T15:44:15.594Z,41.64
2019-04-14T15:46:42.453Z,41.69
2019-04-14T15:49:09.663Z,41.81
2019-04-14T15:51:36.537Z,41.99
2019-04-14T15:54:03.772Z,42.13
2019-04-14T15:56:31.062Z,42.26
2019-04-14T15:58:58.031Z,42.35
2019-04-14T16:01:24.953Z,42.50
2019-04-14T16:03:52.178Z,42.55
2019-04-14T16:06:19.057Z,42.58
2019-04-14T16:08:46.269Z,42.64
2019-04-14T16:11:13.242Z,42.67
2019-04-14T16:13:40.239Z,42.59
2019-04-14T16:16:07.507Z,42.62
2019-04-14T16:18:34.416Z,42.65
2019-04-14T16:21:01.940Z,42.72
2019-04-14T16:23:29.069Z,42.70
2019-04-14T16:25:55.957Z,42.84
2019-04-14T16:28:22.844Z,42.88
2019-04-14T16:30:50.132Z,42.94
2019-04-14T16:33:17.471Z,42.93
2019-04-14T16:35:44.713Z,42.97
2019-04-14T16:38:11.609Z,43.16
2019-04-14T16:40:38.472Z,43.31
2019-04-14T16:43:05.702Z,43.31
2019-04-14T16:45:33.025Z,43.32
2019-04-14T16:48:00.291Z,43.40
2019-04-14T16:50:27.526Z,43.42
2019-04-14T16:52:54.462Z,43.42
2019-04-14T16:55:21.806Z,43.41
2019-04-14T16:57:48.978Z,43.50
2019-04-14T17:00:16.344Z,43.58
2019-04-14T17:02:43.990Z,43.61
2019-04-14T17:05:10.884Z,43.58
2019-04-14T17:07:38.798Z,43.62
2019-04-14T17:10:06.046Z,43.58
2019-04-14T17:12:33.718Z,43.53
2019-04-14T17:15:00.716Z,43.46
2019-04-14T17:17:27.739Z,43.43
2019-04-14T17:19:57.079Z,43.47
2019-04-14T17:22:23.229Z,43.64
2019-04-14T17:24:50.200Z,44.67
2019-04-14T17:27:17.162Z,44.77
2019-04-14T17:29:44.487Z,44.90
2019-04-14T17:32:11.434Z,45.01
2019-04-14T17:34:38.683Z,44.97
2019-04-14T17:37:05.834Z,45.14
2019-04-14T17:39:33.090Z,45.05
2019-04-14T17:42:00.342Z,44.88
2019-04-14T17:44:27.281Z,44.79
2019-04-14T17:46:54.241Z,44.75
2019-04-14T17:49:21.197Z,44.65
2019-04-14T17:51:48.709Z,44.67
2019-04-14T17:54:15.638Z,44.67
2019-04-14T17:56:42.546Z,44.66
2019-04-14T17:59:09.802Z,44.59
2019-04-14T18:01:37.831Z,44.49
2019-04-14T18:04:06.408Z,44.47
2019-04-14T18:06:33.359Z,44.50
2019-04-14T18:09:00.270Z,44.50
2019-04-14T18:11:27.254Z,44.47
2019-04-14T18:13:54.220Z,44.51
2019-04-14T18:16:21.216Z,44.47
2019-04-14T18:18:49.315Z,44.41
2019-04-14T18:21:16.635Z,44.43
2019-04-14T18:23:45.190Z,44.44
2019-04-14T18:26:12.582Z,44.37
2019-04-14T18:28:39.660Z,44.26
2019-04-14T18:31:06.943Z,44.25
2019-04-14T18:33:33.813Z,44.15
2019-04-14T18:36:00.765Z,44.16
2019-04-14T18:38:27.748Z,44.04
2019-04-14T18:40:55.023Z,43.86
2019-04-14T18:43:22.092Z,43.82
2019-04-14T18:45:49.319Z,43.76
2019-04-14T18:48:16.574Z,43.49
2019-04-14T18:50:43.475Z,43.38
2019-04-14T18:53:10.489Z,43.34
2019-04-14T18:55:37.369Z,43.28
2019-04-14T18:58:04.266Z,43.19
2019-04-14T19:00:31.512Z,43.16
2019-04-14T19:02:58.412Z,43.10
2019-04-14T19:05:25.382Z,43.08
2019-04-14T19:07:52.656Z,43.02
2019-04-14T19:10:19.529Z,43.07
2019-04-14T19:12:46.397Z,43.07
2019-04-14T19:15:13.288Z,42.97
2019-04-14T19:17:40.250Z,42.87
2019-04-14T19:20:07.496Z,42.69
2019-04-14T19:22:34.364Z,42.63
2019-04-14T19:25:08.068Z,42.70
2019-04-14T19:27:30.577Z,42.84
2019-04-14T19:29:57.834Z,42.94
2019-04-14T19:32:25.084Z,43.13
2019-04-14T19:34:51.963Z,43.25
2019-04-14T19:37:18.841Z,43.28
2019-04-14T19:39:45.750Z,43.46
2019-04-14T19:42:13.072Z,43.52
2019-04-14T19:44:40.424Z,43.52
2019-04-14T19:47:08.128Z,43.52
2019-04-14T19:49:35.103Z,43.57
2019-04-14T19:52:02.092Z,43.55
2019-04-14T19:54:29.438Z,43.46
2019-04-14T19:56:56.420Z,43.28
2019-04-14T19:59:23.398Z,43.27
2019-04-14T20:01:50.574Z,43.28
2019-04-14T20:04:17.462Z,43.15
2019-04-14T20:06:44.326Z,43.02
2019-04-14T20:09:11.631Z,42.94
2019-04-14T20:11:38.642Z,42.84
2019-04-14T20:14:05.923Z,42.76
2019-04-14T20:16:32.864Z,42.72
2019-04-14T20:19:09.857Z,42.65
2019-04-14T20:21:28.434Z,42.52
2019-04-14T20:23:55.769Z,42.44
2019-04-14T20:26:22.732Z,42.38
2019-04-14T20:28:49.949Z,42.30
2019-04-14T20:31:16.821Z,42.26
2019-04-14T20:33:43.813Z,42.30
2019-04-14T20:36:10.764Z,42.34
2019-04-14T20:38:37.990Z,42.38
2019-04-14T20:41:04.869Z,42.33
2019-04-14T20:43:32.025Z,42.30
2019-04-14T20:45:59.273Z,42.26
2019-04-14T20:48:26.269Z,42.28
2019-04-14T20:50:53.164Z,42.31
2019-04-14T20:53:20.030Z,42.34
2019-04-14T20:55:47.831Z,42.33
2019-04-14T20:58:15.257Z,42.28
2019-04-14T21:00:42.257Z,42.19
2019-04-14T21:03:09.384Z,42.06
2019-04-14T21:05:36.344Z,41.99
2019-04-14T21:08:04.558Z,41.99
2019-04-14T21:10:31.450Z,42.04
2019-04-14T21:12:58.653Z,41.99
2019-04-14T21:15:25.532Z,41.84
2019-04-14T21:17:52.854Z,41.82
2019-04-14T21:20:19.806Z,41.82
2019-04-14T21:22:48.076Z,41.79
2019-04-14T21:25:14.940Z,41.82
2019-04-14T21:27:42.176Z,41.83
2019-04-14T21:30:09.076Z,41.78
2019-04-14T21:32:36.038Z,41.78
2019-04-14T21:35:02.905Z,41.82
2019-04-14T21:37:30.171Z,41.81
2019-04-14T21:39:57.066Z,41.82
2019-04-14T21:42:24.359Z,41.81
2019-04-14T21:44:51.517Z,41.83
2019-04-14T21:47:18.502Z,42.02
2019-04-14T21:49:45.373Z,42.03
2019-04-14T21:52:12.281Z,42.04
2019-04-14T21:54:39.247Z,41.97
2019-04-14T21:57:06.534Z,41.87
2019-04-14T21:59:33.401Z,41.78
2019-04-14T22:02:00.286Z,41.68
2019-04-14T22:04:27.491Z,41.70
2019-04-14T22:06:54.464Z,41.62
2019-04-14T22:09:21.670Z,41.56
2019-04-14T22:11:48.600Z,41.46
2019-04-14T22:14:15.765Z,41.39
2019-04-14T22:16:42.668Z,41.34
2019-04-14T22:19:09.621Z,41.28
2019-04-14T22:21:36.617Z,41.21
2019-04-14T22:24:03.504Z,41.16
2019-04-14T22:26:31.014Z,41.15
2019-04-14T22:28:57.901Z,41.16
2019-04-14T22:31:24.849Z,41.17
2019-04-14T22:33:51.733Z,41.16
2019-04-14T22:36:18.606Z,41.11
2019-04-14T22:38:45.740Z,41.08
2019-04-14T22:41:12.677Z,41.12
2019-04-14T22:43:39.841Z,41.15
2019-04-14T22:46:06.791Z,41.17
2019-04-14T22:48:33.780Z,41.17
2019-04-14T22:51:01.094Z,41.20
2019-04-14T22:53:28.072Z,41.16
2019-04-14T22:55:55.001Z,41.19
2019-04-14T22:58:21.973Z,41.33
2019-04-14T23:00:48.849Z,41.48
2019-04-14T23:03:17.363Z,41.49
2019-04-14T23:05:44.612Z,41.39
2019-04-14T23:08:11.609Z,41.30
2019-04-14T23:10:38.473Z,41.29
2019-04-14T23:13:05.637Z,41.31
2019-04-14T23:15:33.108Z,41.35
2019-04-14T23:18:00.062Z,41.40
2019-04-14T23:20:27.316Z,41.49
2019-04-14T23:22:54.264Z,41.53
2019-04-14T23:25:21.140Z,41.54
2019-04-14T23:27:48.974Z,41.54
2019-04-14T23:30:15.869Z,41.44
2019-04-14T23:32:42.835Z,41.44
2019-04-14T23:35:09.776Z,41.40
2019-04-14T23:37:36.649Z,41.35
2019-04-14T23:40:04.931Z,41.31
2019-04-14T23:42:31.871Z,41.29
2019-04-14T23:44:58.829Z,41.42
2019-04-14T23:47:25.780Z,41.69
2019-04-14T23:49:52.724Z,41.65
2019-04-14T23:52:19.937Z,41.62
2019-04-14T23:54:46.824Z,41.65
2019-04-14T23:57:14.053Z,41.56
2019-04-14T23:59:41.320Z,41.50
